Main page
METAR-TAF:

METAR-TAF

Airports :

Lynden Pindling International Airport

Nassau, The Bahamas

latitude: 25-03N, longitude: 077-28W, elevation: 3 m

Current weather observation

The report was made 27 minutes ago, at 06:00 UTC
Wind 2 kt from variable directions
Temperature 20°C
Humidity 88%
Pressure 1014 hPa
Visibility 10 km or more
Scattered clouds at a height of 2500 ft

METAR: MYNN 210600Z VRB02KT 9999 SCT025 20/18 A2995

Time: 02:27 (06:27 UTC)

Forecast

The report was made 1 hour and 57 minutes ago, at 04:30 UTC
Forecast valid from 21 at 06 UTC to 22 at 06 UTC
Wind 2 kt from variable directions
Visibility 10 km or more
Few clouds at a height of 2500 ft
Becoming
from 21 at 13 UTC to 21 at 15 UTC
Wind 6 kt from the East/Northeast
Scattered clouds at a height of 2500 ft

TAF: MYNN 210430Z 2106/2206 VRB02KT 9999 FEW025 BECMG 2113/2115 06006KT SCT025

Weather observations and forecasts of more than 4000 airports (METAR and TAF reports).

The available stations are represented by yellow and red dots on the map.

Hover mouse over dot to see the name of the station.

Then click to see weather observations and forecasts.

To change the map : click on the green buttons with a black cross to zoom in, on the green button with a dash to zoom out, or on the green arrows for adjacent maps.


METAR-TAF: